CHO weather

Cholila Airport
Cholila, Chubut Province, Argentina

Public forecast

Using degrees Celsius for public forecast. Weather courtesy of forecast.io.

METAR (pilot weather report)

Report is more than 6 hours old.

Closest report is Brigadier Antonio Parodi Airport, 29.1 nm (53.9 km) SSE. Retrieved 2019/04/22 12:16 UTC (10 hours ago):

SAVE 221216Z 23004KT 0100 FG NSC M01/M01 Q1017

TAF (pilot weather forecast)

Forecast is more than 12 hours old.

Closest forecast is Brigadier Antonio Parodi Airport, 29.1 nm (53.9 km) SSE. Retrieved 2019/04/15 06:04 UTC (8 days ago):

TAF SAVE 150500Z 1506/1606 27010KT 9999 SCT030 TX12/1518Z TNM01/1510Z BECMG 1518/1520 29010KT